Maidsville, West Virginia
Current Conditions -  °F | °C
As of 4:53 AM on Monday 22 Dec 2014 (Local Time) from KMGW Reporting Station
Clear Clear  
Wind Chill: 26°   Ceiling: Unl
Heat Index: 32°   Visibility: 10mi
Dew Point: 22°   Wind: 7mph
Humidity: 66%   Direction: 110°ESE
Pressure: 30.1"   Gusts: NA
Location:  39.69°N, 79.98°W
Report Text: KMGW 220953Z AUTO 11006KT 10SM CLR 00/M06 A3010 RMK AO2 SLP204 T00001056 TSNO
Loading
Personal Weather Stations






























Interactive Weather Map New forecast layout! Learn more

10-Day Weather Forecast

Advertisements
Track Severe Weather on mobile